Time;durP1;ratioP1;P1;durP2;ratioP2;P2;SDS_P1;SDS_P2;PMS_P1;PMS_P2;Temp;Humidity;BMP_temperature;BMP_pressure;BME280_temperature;BME280_humidity;BME280_pressure;Samples;Min_cycle;Max_cycle;Signal;HPM_P1;HPM_P2
2023/04/19 00:01:23;;;;;;;5.88;1.73;;;;;;;29.67;26.37;101121.25;7399191;19;20002;-62
2023/04/19 00:03:49;;;;;;;23.30;2.38;;;;;;;29.71;26.23;101128.13;7398374;19;20039;-62
2023/04/19 00:06:16;;;;;;;1.63;1.63;;;;;;;29.64;26.35;101131.03;7400750;19;20010;-62
2023/04/19 00:08:43;;;;;;;1.55;0.77;;;;;;;29.63;26.33;101124.50;7401641;19;20040;-62
2023/04/19 00:11:09;;;;;;;4.82;1.40;;;;;;;29.52;26.25;101127.78;7397028;19;20010;-63
2023/04/19 00:13:35;;;;;;;4.10;2.53;;;;;;;29.32;26.32;101128.81;7399930;19;20015;-63
2023/04/19 00:16:02;;;;;;;2.47;1.65;;;;;;;29.35;26.80;101127.63;7399773;19;20326;-62
2023/04/19 00:18:28;;;;;;;2.40;1.63;;;;;;;29.20;26.85;101122.69;7399053;19;20007;-62
2023/04/19 00:20:56;;;;;;;1.08;1.08;;;;;;;29.30;26.65;101120.00;7399808;19;20043;-62
2023/04/19 00:23:24;;;;;;;3.22;1.48;;;;;;;29.40;26.63;101118.06;7399857;19;20014;-63
2023/04/19 00:25:50;;;;;;;4.75;2.67;;;;;;;29.45;26.56;101113.47;7399875;19;20040;-63
2023/04/19 00:28:16;;;;;;;7.13;1.83;;;;;;;29.41;26.70;101108.09;7399828;19;20025;-62
2023/04/19 00:30:42;;;;;;;3.58;1.75;;;;;;;29.30;26.78;101102.78;7397183;19;20459;-62
2023/04/19 00:33:11;;;;;;;3.30;1.85;;;;;;;29.27;26.82;101103.94;7400831;19;20486;-62
2023/04/19 00:35:40;;;;;;;3.50;1.55;;;;;;;29.15;26.91;101108.53;7398706;19;20411;-63
2023/04/19 00:38:07;;;;;;;5.10;2.58;;;;;;;29.01;26.65;101115.81;7397751;19;20015;-62
2023/04/19 00:40:33;;;;;;;10.43;3.03;;;;;;;29.06;27.27;101100.50;7403170;19;20354;-62
2023/04/19 00:42:59;;;;;;;3.55;2.20;;;;;;;28.88;27.13;101099.56;7396154;19;20007;-62
2023/04/19 00:45:25;;;;;;;8.57;1.70;;;;;;;28.97;27.01;101083.88;7397547;19;20090;-62
2023/04/19 00:47:53;;;;;;;2.58;1.75;;;;;;;28.85;27.34;101091.31;7395988;19;20011;-62
2023/04/19 00:50:19;;;;;;;12.88;2.63;;;;;;;28.69;27.41;101089.81;7400025;19;20110;-62
2023/04/19 00:52:45;;;;;;;1.65;1.55;;;;;;;28.72;27.10;101097.28;7397620;19;20396;-61
2023/04/19 00:55:12;;;;;;;10.95;3.35;;;;;;;28.72;27.21;101088.69;7401702;19;20086;-62
2023/04/19 00:57:39;;;;;;;5.07;2.70;;;;;;;28.55;27.59;101092.06;7398605;19;20010;-62
2023/04/19 01:00:08;;;;;;;2.63;2.00;;;;;;;28.95;27.21;101098.03;7400245;19;20018;-62
2023/04/19 01:02:35;;;;;;;6.43;2.72;;;;;;;28.89;27.31;101097.47;7396715;19;20015;-62
2023/04/19 01:05:02;;;;;;;3.22;1.95;;;;;;;28.94;27.19;101096.50;7398391;19;20013;-62
2023/04/19 01:07:28;;;;;;;4.22;1.73;;;;;;;29.03;26.83;101090.19;7397919;19;20011;-62
2023/04/19 01:09:54;;;;;;;2.95;2.08;;;;;;;29.02;26.72;101094.41;7399795;19;20014;-62
2023/04/19 01:12:21;;;;;;;3.55;1.40;;;;;;;28.51;27.50;101086.72;7396783;19;20021;-62
2023/04/19 01:14:49;;;;;;;2.03;1.63;;;;;;;28.79;27.21;101087.91;7396630;19;20380;-62
2023/04/19 01:17:18;;;;;;;6.00;3.00;;;;;;;28.76;27.05;101084.06;7396833;19;20010;-62
2023/04/19 01:19:45;;;;;;;1.63;1.52;;;;;;;28.87;27.23;101082.94;7398752;19;20021;-62
2023/04/19 01:22:23;;;;;;;6.47;2.65;;;;;;;28.78;27.18;101074.91;7395976;19;20452;-62
2023/04/19 01:24:50;;;;;;;4.82;2.85;;;;;;;28.69;26.82;101066.88;7395396;19;20045;-62
2023/04/19 01:27:16;;;;;;;1.75;1.42;;;;;;;28.54;27.47;101068.38;7396029;19;20026;-62
2023/04/19 01:29:42;;;;;;;3.10;1.80;;;;;;;28.31;27.25;101056.13;7398895;19;20027;-62
2023/04/19 01:32:09;;;;;;;1.85;1.73;;;;;;;28.33;27.45;101059.19;7397198;19;20542;-62
2023/04/19 01:34:35;;;;;;;2.72;1.38;;;;;;;28.23;27.55;101068.91;7398178;19;20021;-61
2023/04/19 01:37:03;;;;;;;3.03;1.60;;;;;;;27.95;27.79;101052.59;7396270;19;20082;-61
2023/04/19 01:39:30;;;;;;;2.40;1.58;;;;;;;28.04;27.49;101049.22;7399281;19;20013;-61
2023/04/19 01:41:56;;;;;;;6.32;3.05;;;;;;;28.03;27.86;101056.25;7400214;19;20030;-61
2023/04/19 01:44:22;;;;;;;13.60;2.00;;;;;;;28.03;27.82;101047.69;7396497;19;20364;-61
2023/04/19 01:46:48;;;;;;;3.22;2.05;;;;;;;27.39;28.21;101047.03;7395411;19;20018;-61
2023/04/19 01:49:15;;;;;;;2.83;1.65;;;;;;;27.19;28.17;101045.00;7398209;19;20078;-61
2023/04/19 01:51:42;;;;;;;2.72;1.70;;;;;;;27.77;28.21;101043.00;7392832;19;20011;-61
2023/04/19 01:54:08;;;;;;;3.25;1.17;;;;;;;27.84;27.70;101046.44;7395757;19;20021;-61
2023/04/19 01:56:35;;;;;;;1.63;1.52;;;;;;;27.87;28.20;101039.59;7394616;19;20014;-61
2023/04/19 01:59:01;;;;;;;2.22;1.27;;;;;;;27.71;27.99;101036.69;7395927;19;20360;-61
2023/04/19 02:01:27;;;;;;;8.82;2.88;;;;;;;28.39;27.85;101038.94;7395171;19;20039;-61
2023/04/19 02:03:53;;;;;;;9.75;2.95;;;;;;;28.57;27.37;101028.44;7396649;19;20329;-61
2023/04/19 02:06:19;;;;;;;2.70;2.20;;;;;;;28.66;27.41;101033.59;7396531;19;20471;-61
2023/04/19 02:08:47;;;;;;;4.35;2.38;;;;;;;28.66;27.08;101033.59;7395238;19;20027;-61
2023/04/19 02:11:13;;;;;;;5.38;1.83;;;;;;;28.76;27.21;101026.72;7394198;19;20024;-61
2023/04/19 02:13:40;;;;;;;4.93;3.15;;;;;;;28.64;27.54;101030.56;7396938;19;20021;-62
2023/04/19 02:16:08;;;;;;;5.70;2.83;;;;;;;28.82;27.39;101035.13;7395966;19;20010;-61
2023/04/19 02:18:38;;;;;;;5.72;3.10;;;;;;;28.73;27.48;101027.88;7395186;19;20010;-61
2023/04/19 02:21:06;;;;;;;15.38;1.98;;;;;;;28.69;27.25;101021.00;7395591;19;20015;-61
2023/04/19 02:23:32;;;;;;;4.07;2.78;;;;;;;28.42;27.78;101027.09;7394658;19;20013;-61
2023/04/19 02:26:01;;;;;;;2.67;2.15;;;;;;;28.24;27.74;101016.03;7394507;19;20015;-61
2023/04/19 02:28:29;;;;;;;2.20;1.35;;;;;;;27.48;28.77;101015.03;7396319;19;20019;-62
2023/04/19 02:30:55;;;;;;;1.48;1.20;;;;;;;28.23;27.75;101014.47;7392736;19;20497;-61
2023/04/19 02:33:22;;;;;;;2.05;1.83;;;;;;;28.39;27.99;101016.03;7394648;19;20017;-62
2023/04/19 02:35:48;;;;;;;2.50;1.88;;;;;;;28.30;27.76;101016.59;7393567;19;20093;-61
2023/04/19 02:38:15;;;;;;;6.53;2.58;;;;;;;28.29;28.28;101012.19;7392662;19;20014;-61
2023/04/19 02:40:41;;;;;;;3.95;2.13;;;;;;;28.39;28.06;101011.03;7394329;19;20464;-61
2023/04/19 02:43:07;;;;;;;4.30;1.95;;;;;;;28.42;27.88;101004.16;7393892;19;20070;-61
2023/04/19 02:45:33;;;;;;;5.47;1.60;;;;;;;28.38;28.15;101012.38;7394026;19;20013;-61
2023/04/19 02:48:00;;;;;;;4.43;2.55;;;;;;;28.46;28.07;101016.00;7395401;19;20007;-61
2023/04/19 02:50:26;;;;;;;2.00;1.88;;;;;;;27.75;28.37;101001.94;7397530;19;20039;-62
2023/04/19 02:52:52;;;;;;;11.45;3.45;;;;;;;27.00;29.68;100996.66;7394031;19;20014;-61
2023/04/19 02:55:20;;;;;;;3.30;1.33;;;;;;;27.74;28.66;101004.03;7397998;19;20028;-61
2023/04/19 02:57:51;;;;;;;2.50;2.30;;;;;;;28.20;28.77;100999.19;7392113;19;20011;-61
2023/04/19 03:00:17;;;;;;;1.83;1.63;;;;;;;28.61;28.42;101000.19;7397441;19;20401;-62
2023/04/19 03:02:55;;;;;;;5.53;2.45;;;;;;;28.82;27.87;100995.00;7392892;19;20047;-61
2023/04/19 03:05:22;;;;;;;2.97;2.08;;;;;;;28.93;28.10;100995.34;7393991;19;20011;-61
2023/04/19 03:07:48;;;;;;;18.02;3.17;;;;;;;28.87;28.12;100991.91;7393230;19;20018;-61
2023/04/19 03:10:14;;;;;;;9.50;2.28;;;;;;;28.96;27.98;100987.66;7395847;19;20471;-62
2023/04/19 03:12:41;;;;;;;2.80;1.77;;;;;;;28.96;28.11;100987.66;7392877;19;20468;-62
2023/04/19 03:15:09;;;;;;;2.55;1.70;;;;;;;28.72;28.08;100996.94;7392792;19;20026;-62
2023/04/19 03:17:36;;;;;;;8.95;3.58;;;;;;;28.56;28.57;100983.91;7394730;19;20015;-61
2023/04/19 03:20:09;;;;;;;1.13;1.13;;;;;;;28.54;28.60;100988.09;7395716;19;20014;-61
2023/04/19 03:22:37;;;;;;;19.08;2.65;;;;;;;28.71;28.27;100996.16;7391818;19;20014;-61
2023/04/19 03:25:03;;;;;;;1.67;1.23;;;;;;;28.76;28.52;100985.81;7393704;19;20468;-62
2023/04/19 03:27:30;;;;;;;7.20;2.55;;;;;;;28.53;28.37;100986.59;7392120;19;20468;-62
2023/04/19 03:30:00;;;;;;;8.35;2.35;;;;;;;28.64;28.74;100991.19;7395168;19;20110;-62
2023/04/19 03:32:28;;;;;;;3.80;1.88;;;;;;;28.62;28.33;100987.38;7392588;19;20022;-61
2023/04/19 03:34:54;;;;;;;6.57;2.20;;;;;;;28.59;28.50;100988.53;7389706;19;20019;-62
2023/04/19 03:37:20;;;;;;;2.08;1.92;;;;;;;28.49;28.84;100985.44;7392994;19;20014;-61
2023/04/19 03:39:47;;;;;;;9.35;1.80;;;;;;;28.38;28.72;100978.00;7394288;19;20485;-61
2023/04/19 03:42:18;;;;;;;8.85;2.33;;;;;;;28.26;28.92;100985.44;7391759;19;20349;-62
2023/04/19 03:45:07;;;;;;;1.27;1.27;;;;;;;28.23;29.02;100995.19;7392359;19;20014;-62
2023/04/19 03:47:39;;;;;;;8.38;3.58;;;;;;;28.23;28.93;100995.19;7392270;19;20063;-62
2023/04/19 03:50:06;;;;;;;3.53;1.85;;;;;;;28.15;29.13;100990.78;7393928;19;20011;-62
2023/04/19 03:52:34;;;;;;;3.45;2.28;;;;;;;28.20;29.14;100993.47;7391916;19;20109;-62
2023/04/19 03:55:01;;;;;;;2.10;0.98;;;;;;;28.20;29.32;100992.69;7394700;19;20010;-62
2023/04/19 03:57:35;;;;;;;6.25;2.38;;;;;;;27.96;29.60;100985.38;7391300;19;20018;-61
2023/04/19 04:00:08;;;;;;;3.17;2.00;;;;;;;28.40;29.20;100986.78;7394761;19;20011;-62
2023/04/19 04:02:40;;;;;;;3.63;1.92;;;;;;;28.46;28.82;100980.84;7392981;19;20019;-62
2023/04/19 04:05:06;;;;;;;4.57;3.72;;;;;;;28.51;29.19;100983.53;7390168;19;20337;-62
2023/04/19 04:07:33;;;;;;;3.38;2.65;;;;;;;28.48;29.08;100987.53;7390054;19;20078;-61
2023/04/19 04:10:01;;;;;;;4.55;1.45;;;;;;;28.57;28.76;100986.22;7394415;19;20455;-62
2023/04/19 04:12:29;;;;;;;1.58;1.33;;;;;;;28.59;29.07;100982.78;7390388;19;20287;-61
2023/04/19 04:14:56;;;;;;;2.00;1.88;;;;;;;28.46;29.38;100981.63;7390827;19;20022;-61
2023/04/19 04:17:23;;;;;;;2.67;1.77;;;;;;;28.47;28.93;100979.53;7390794;19;20044;-61
2023/04/19 04:19:50;;;;;;;1.90;1.65;;;;;;;28.81;28.82;100979.09;7394571;19;20082;-61
2023/04/19 04:22:17;;;;;;;5.97;3.33;;;;;;;28.49;28.91;100980.47;7389879;19;20130;-61
2023/04/19 04:24:43;;;;;;;7.25;2.60;;;;;;;28.63;29.02;100980.31;7389357;19;20604;-61
2023/04/19 04:27:20;;;;;;;4.90;2.50;;;;;;;28.54;28.98;100984.50;7388946;19;20011;-62
2023/04/19 04:29:49;;;;;;;5.07;2.70;;;;;;;28.64;29.11;100991.19;7391812;19;20014;-62
2023/04/19 04:32:17;;;;;;;2.63;2.10;;;;;;;28.85;28.74;100979.47;7389398;19;20046;-62
2023/04/19 04:34:43;;;;;;;12.55;3.50;;;;;;;28.95;29.05;100980.44;7392207;19;20019;-62
2023/04/19 04:37:16;;;;;;;3.90;2.03;;;;;;;28.95;28.63;100974.69;7390902;19;20026;-62
2023/04/19 04:39:43;;;;;;;8.07;2.40;;;;;;;28.99;29.12;100980.78;7393136;19;20021;-62
2023/04/19 04:42:11;;;;;;;12.25;2.97;;;;;;;28.92;28.92;100979.47;7390206;19;20015;-62
2023/04/19 04:44:37;;;;;;;2.10;1.88;;;;;;;28.60;29.37;100978.56;7393962;19;20010;-61
2023/04/19 04:47:04;;;;;;;2.67;2.38;;;;;;;28.60;29.28;100990.03;7396516;19;20010;-62
2023/04/19 04:49:36;;;;;;;9.73;3.35;;;;;;;28.54;29.61;100979.50;7400353;19;20014;-62
2023/04/19 04:52:03;;;;;;;13.88;2.67;;;;;;;28.56;29.16;100978.16;7399472;19;20113;-66
2023/04/19 04:54:34;;;;;;;11.50;4.45;;;;;;;28.31;29.73;100984.47;7399650;19;20014;-63
2023/04/19 04:57:01;;;;;;;2.33;2.13;;;;;;;28.57;29.41;100980.47;7396180;19;20017;-63
2023/04/19 04:59:27;;;;;;;4.22;2.85;;;;;;;28.44;29.62;100978.56;7397983;19;20011;-63
2023/04/19 05:01:53;;;;;;;4.40;1.88;;;;;;;28.41;29.41;100979.69;7396776;19;20021;-63
2023/04/19 05:04:20;;;;;;;5.82;2.72;;;;;;;28.81;29.03;100979.09;7396179;19;20010;-63
2023/04/19 05:06:46;;;;;;;8.15;2.90;;;;;;;28.77;29.37;100976.63;7397972;19;20046;-63
2023/04/19 05:09:17;;;;;;;3.95;1.88;;;;;;;28.78;29.33;100988.88;7398228;19;20015;-63
2023/04/19 05:11:44;;;;;;;5.93;2.20;;;;;;;28.73;29.68;100998.44;7393638;19;20475;-62
2023/04/19 05:14:12;;;;;;;3.30;2.25;;;;;;;28.88;29.12;100993.44;7397302;19;20031;-63
2023/04/19 05:16:38;;;;;;;7.55;2.50;;;;;;;28.92;29.47;100993.81;7397304;19;20018;-62
2023/04/19 05:19:05;;;;;;;6.65;2.85;;;;;;;28.90;29.04;100995.72;7398189;19;20040;-62
2023/04/19 05:21:35;;;;;;;4.60;2.40;;;;;;;28.85;29.31;101005.28;7395713;19;20379;-62
2023/04/19 05:24:04;;;;;;;6.85;2.50;;;;;;;28.81;29.26;101002.03;7394775;19;20015;-62
2023/04/19 05:26:32;;;;;;;3.13;2.65;;;;;;;28.74;29.55;101003.59;7394794;19;20475;-62
2023/04/19 05:28:59;;;;;;;39.78;6.97;;;;;;;28.75;29.52;101008.00;7396891;19;20126;-62
2023/04/19 05:31:56;;;;;;;4.35;3.88;;;;;;;28.93;29.58;101011.78;7393148;19;20077;-63
2023/04/19 05:34:29;;;;;;;6.28;2.75;;;;;;;28.96;29.64;101004.88;7394783;19;20041;-62
2023/04/19 05:36:57;;;;;;;7.38;2.60;;;;;;;29.08;29.05;101011.75;7393885;19;20365;-63
2023/04/19 05:39:23;;;;;;;4.43;2.80;;;;;;;29.13;29.53;101016.50;7396752;19;20124;-62
2023/04/19 05:41:50;;;;;;;4.15;2.75;;;;;;;29.27;29.22;101017.06;7394498;19;20379;-63
2023/04/19 05:44:17;;;;;;;4.55;2.55;;;;;;;29.22;29.26;101010.19;7396275;19;20019;-63
2023/04/19 05:46:43;;;;;;;2.83;2.00;;;;;;;28.97;29.47;101012.94;7394730;19;20018;-63
2023/04/19 05:49:12;;;;;;;5.93;1.52;;;;;;;28.73;29.51;101009.91;7395695;19;20011;-62
2023/04/19 05:51:38;;;;;;;3.60;1.65;;;;;;;28.64;29.63;101019.84;7393335;19;20036;-62
2023/04/19 05:54:15;;;;;;;4.40;2.28;;;;;;;28.68;29.65;101014.50;7395870;19;20007;-62
2023/04/19 05:56:44;;;;;;;7.57;1.87;;;;;;;28.61;30.21;101021.00;7392724;19;20022;-62
2023/04/19 05:59:12;;;;;;;4.13;1.92;;;;;;;28.75;29.76;101012.97;7396490;19;20015;-62
2023/04/19 06:01:39;;;;;;;4.03;1.88;;;;;;;28.86;29.63;101024.03;7395676;19;20018;-62
2023/04/19 06:04:05;;;;;;;16.75;3.47;;;;;;;28.76;29.87;101020.25;7393921;19;20021;-62
2023/04/19 06:06:31;;;;;;;2.25;2.10;;;;;;;28.93;29.48;101023.25;7394717;19;20014;-62
2023/04/19 06:08:57;;;;;;;22.90;3.38;;;;;;;28.74;30.13;101028.66;7396433;19;20010;-62
2023/04/19 06:11:24;;;;;;;5.57;3.00;;;;;;;28.69;30.23;101023.88;7393845;19;20011;-62
2023/04/19 06:13:50;;;;;;;6.22;2.63;;;;;;;28.89;29.98;101017.16;7394315;19;20015;-62
2023/04/19 06:16:17;;;;;;;7.57;3.17;;;;;;;28.93;29.63;101020.41;7394496;19;20007;-62
2023/04/19 06:18:43;;;;;;;20.83;3.55;;;;;;;29.00;29.65;101016.75;7395670;19;20018;-62
2023/04/19 06:21:09;;;;;;;6.75;2.58;;;;;;;29.14;29.87;101020.91;7395515;19;20082;-62
2023/04/19 06:23:35;;;;;;;5.03;2.58;;;;;;;29.10;29.90;101020.53;7396551;19;20014;-61
2023/04/19 06:26:01;;;;;;;14.13;3.78;;;;;;;29.08;29.85;101020.34;7395465;19;20018;-61
2023/04/19 06:28:28;;;;;;;2.45;1.60;;;;;;;29.24;29.75;101025.50;7394478;19;20057;-62
2023/04/19 06:30:54;;;;;;;4.82;2.78;;;;;;;29.29;29.96;101020.91;7395597;19;20078;-62
2023/04/19 06:33:20;;;;;;;3.13;2.72;;;;;;;29.21;29.92;101017.28;7394644;19;20453;-62
2023/04/19 06:35:46;;;;;;;12.77;3.53;;;;;;;29.02;29.84;101014.06;7394670;19;20007;-62
2023/04/19 06:38:12;;;;;;;7.55;3.75;;;;;;;29.00;29.82;101023.22;7394752;19;20020;-62
2023/04/19 06:40:38;;;;;;;16.38;3.17;;;;;;;28.88;30.12;101015.63;7393818;19;20014;-62
2023/04/19 06:43:05;;;;;;;5.78;3.45;;;;;;;29.00;29.81;101019.63;7394388;19;20017;-62
2023/04/19 06:45:31;;;;;;;3.55;2.13;;;;;;;28.87;29.84;101019.84;7395316;19;20102;-61
2023/04/19 06:47:57;;;;;;;3.03;2.42;;;;;;;28.89;30.35;101023.63;7394101;19;20014;-62
2023/04/19 06:50:23;;;;;;;8.30;3.33;;;;;;;28.96;30.25;101020.00;7397546;19;20010;-62
2023/04/19 06:52:49;;;;;;;7.75;2.97;;;;;;;28.96;30.20;101022.09;7395350;19;20011;-61
2023/04/19 06:55:15;;;;;;;5.05;2.55;;;;;;;29.01;30.11;101024.00;7397026;19;20018;-62
2023/04/19 06:57:42;;;;;;;3.78;3.05;;;;;;;29.17;29.66;101019.78;7393989;19;20007;-62
2023/04/19 07:00:09;;;;;;;5.32;2.50;;;;;;;28.99;30.28;101032.44;7398848;19;20027;-62
2023/04/19 07:02:35;;;;;;;2.42;1.52;;;;;;;28.88;30.28;101032.81;7394099;19;20018;-62
2023/04/19 07:05:02;;;;;;;3.17;2.83;;;;;;;28.81;30.48;101036.47;7394619;19;20538;-62
2023/04/19 07:07:28;;;;;;;6.13;2.88;;;;;;;28.93;30.36;101037.59;7393864;19;20010;-62
2023/04/19 07:09:54;;;;;;;4.90;2.35;;;;;;;28.91;30.30;101031.69;7394493;19;20036;-61
2023/04/19 07:12:21;;;;;;;4.93;1.77;;;;;;;28.75;30.49;101038.78;7393207;19;20021;-62
2023/04/19 07:14:47;;;;;;;4.20;2.40;;;;;;;28.69;30.61;101041.06;7391718;19;20355;-61
2023/04/19 07:17:13;;;;;;;13.82;2.92;;;;;;;28.96;29.96;101045.03;7393894;19;20015;-62
2023/04/19 07:19:39;;;;;;;4.97;2.60;;;;;;;28.94;29.87;101033.38;7396311;19;20375;-61
2023/04/19 07:22:06;;;;;;;4.38;2.20;;;;;;;28.92;30.07;101039.69;7392607;19;20007;-61
2023/04/19 07:24:32;;;;;;;8.80;3.15;;;;;;;29.09;30.13;101037.00;7393651;19;20030;-61
2023/04/19 07:26:58;;;;;;;4.78;2.17;;;;;;;29.26;30.28;101036.38;7395229;19;20468;-61
2023/04/19 07:29:25;;;;;;;14.15;4.00;;;;;;;29.47;29.73;101039.78;7396534;19;20010;-61
2023/04/19 07:31:54;;;;;;;4.72;2.97;;;;;;;29.71;29.58;101030.50;7389581;19;20007;-61
2023/04/19 07:34:20;;;;;;;3.28;2.40;;;;;;;29.73;29.84;101038.50;7393665;19;20511;-61
2023/04/19 07:36:47;;;;;;;7.82;3.25;;;;;;;29.75;29.58;101045.22;7391876;19;20032;-61
2023/04/19 07:39:13;;;;;;;5.80;2.63;;;;;;;29.91;29.73;101035.16;7395103;19;20023;-61
2023/04/19 07:41:39;;;;;;;9.82;2.67;;;;;;;30.00;29.62;101053.88;7393962;19;20841;-61
2023/04/19 07:44:06;;;;;;;6.97;2.47;;;;;;;29.92;29.33;101042.47;7391178;19;20014;-61
2023/04/19 07:46:32;;;;;;;3.55;2.80;;;;;;;30.02;29.29;101045.44;7392884;19;20017;-61
2023/04/19 07:48:58;;;;;;;5.60;3.22;;;;;;;29.93;29.34;101038.22;7394750;19;20475;-61
2023/04/19 07:51:25;;;;;;;13.25;2.88;;;;;;;30.05;29.44;101035.66;7395850;19;20097;-60
2023/04/19 07:53:51;;;;;;;5.57;2.45;;;;;;;30.09;28.86;101036.03;7393332;19;20010;-61
2023/04/19 07:56:18;;;;;;;7.38;3.15;;;;;;;30.12;28.90;101031.22;7394061;19;20010;-61
2023/04/19 07:58:45;;;;;;;18.13;2.60;;;;;;;30.47;29.40;101032.91;7396797;19;20017;-60
2023/04/19 08:01:11;;;;;;;5.00;3.45;;;;;;;30.74;28.56;101025.19;7393250;19;20482;-61
2023/04/19 08:03:37;;;;;;;7.68;2.75;;;;;;;30.74;28.97;101028.06;7393142;19;20006;-61
2023/04/19 08:06:06;;;;;;;3.88;2.22;;;;;;;30.73;28.45;101032.28;7393086;19;20464;-61
2023/04/19 08:08:32;;;;;;;2.97;2.53;;;;;;;30.81;28.57;101035.84;7394230;19;20353;-60
2023/04/19 08:10:59;;;;;;;14.88;2.00;;;;;;;30.63;28.55;101029.31;7391339;19;20015;-61
2023/04/19 08:13:25;;;;;;;4.28;3.00;;;;;;;30.50;28.73;101034.59;7391620;19;20078;-61
2023/04/19 08:15:51;;;;;;;6.63;2.63;;;;;;;30.54;28.69;101043.56;7391012;19;20358;-61
2023/04/19 08:18:17;;;;;;;9.57;2.92;;;;;;;30.69;28.85;101032.69;7393136;19;20018;-60
2023/04/19 08:20:45;;;;;;;7.95;2.78;;;;;;;30.86;28.90;101032.00;7395605;19;20040;-60
2023/04/19 08:23:12;;;;;;;4.88;2.38;;;;;;;30.57;28.89;101037.41;7400116;19;20010;-60
2023/04/19 08:25:39;;;;;;;4.80;2.60;;;;;;;30.60;28.85;101041.22;7400264;19;20037;-60
2023/04/19 08:28:05;;;;;;;9.73;3.15;;;;;;;30.47;28.75;101038.66;7396923;19;20016;-60
2023/04/19 08:30:31;;;;;;;9.13;2.33;;;;;;;30.65;28.76;101048.84;7397624;19;20037;-60
2023/04/19 08:32:57;;;;;;;8.80;2.80;;;;;;;30.41;28.90;101041.75;7398909;19;20025;-60
2023/04/19 08:35:24;;;;;;;4.10;2.67;;;;;;;30.30;28.76;101050.06;7397460;19;20100;-61
2023/04/19 08:37:50;;;;;;;10.10;3.45;;;;;;;30.25;28.60;101054.69;7395392;19;20111;-60
2023/04/19 08:40:16;;;;;;;9.07;3.28;;;;;;;29.91;28.88;101052.41;7402491;19;20018;-61
2023/04/19 08:42:42;;;;;;;5.55;2.90;;;;;;;29.89;29.17;101055.09;7399274;19;20044;-60
2023/04/19 08:45:12;;;;;;;10.75;4.45;;;;;;;30.20;29.51;101038.44;7399663;19;20486;-60
2023/04/19 08:47:39;;;;;;;4.07;2.63;;;;;;;30.55;29.24;101045.88;7399711;19;20052;-60
2023/04/19 08:50:07;;;;;;;4.05;2.70;;;;;;;30.95;28.74;101037.06;7402828;19;20066;-61
2023/04/19 08:52:34;;;;;;;7.80;2.88;;;;;;;31.30;28.62;101037.84;7398659;19;20018;-60
2023/04/19 08:55:06;;;;;;;7.80;2.85;;;;;;;31.54;28.53;101033.34;7402401;19;20050;-60
2023/04/19 08:57:34;;;;;;;3.85;2.30;;;;;;;31.48;28.56;101036.50;7397640;19;20011;-61
2023/04/19 09:00:06;;;;;;;7.43;2.45;;;;;;;31.13;28.79;101032.84;7403025;19;20032;-61
2023/04/19 09:02:50;;;;;;;4.20;2.85;;;;;;;31.36;28.40;101030.47;7398470;19;20022;-61
2023/04/19 09:05:17;;;;;;;9.48;3.42;;;;;;;31.29;28.63;101024.81;7397479;19;20753;-61
2023/04/19 09:07:45;;;;;;;7.63;3.05;;;;;;;27.48;32.42;101026.47;7397086;19;20006;-61
2023/04/19 09:10:13;;;;;;;4.57;2.95;;;;;;;28.71;31.31;101032.66;7401140;19;20010;-61
2023/04/19 09:12:40;;;;;;;9.02;3.88;;;;;;;28.94;31.17;101036.25;7395298;19;20018;-61
2023/04/19 09:15:08;;;;;;;6.65;1.77;;;;;;;28.61;31.65;101035.34;7395326;19;20039;-61
2023/04/19 09:17:39;;;;;;;4.18;2.20;;;;;;;28.90;31.84;101033.00;7396428;19;20017;-61
2023/04/19 09:20:06;;;;;;;6.90;2.33;;;;;;;28.32;31.72;101028.25;7397257;19;20016;-61
2023/04/19 09:22:32;;;;;;;3.45;1.65;;;;;;;27.34;32.75;101033.63;7393183;19;20044;-61
2023/04/19 09:24:59;;;;;;;7.20;3.00;;;;;;;28.96;31.29;101024.97;7396430;19;20007;-61
2023/04/19 09:27:34;;;;;;;6.45;2.15;;;;;;;29.45;30.89;101021.59;7396456;19;20014;-61
2023/04/19 09:30:02;;;;;;;5.05;2.10;;;;;;;30.22;30.25;101020.59;7400468;19;20014;-61
2023/04/19 09:32:45;;;;;;;5.63;1.30;;;;;;;31.13;30.23;101020.56;7394273;19;20017;-61
2023/04/19 09:35:11;;;;;;;2.30;1.88;;;;;;;31.62;29.24;101022.53;7397714;19;20464;-62
2023/04/19 09:37:40;;;;;;;2.70;1.88;;;;;;;31.57;29.26;101009.91;7397156;19;20018;-61
2023/04/19 09:40:33;;;;;;;6.43;2.72;;;;;;;32.03;28.96;101019.44;7399723;19;20011;-61
2023/04/19 09:42:59;;;;;;;3.42;1.65;;;;;;;32.67;28.35;101026.69;7396569;19;20559;-61
2023/04/19 09:45:27;;;;;;;10.88;1.88;;;;;;;33.21;27.49;101009.91;7399933;19;20006;-61
2023/04/19 09:48:02;;;;;;;12.93;2.35;;;;;;;33.27;27.00;101015.38;7397514;19;20366;-61
2023/04/19 09:50:28;;;;;;;2.80;1.58;;;;;;;34.01;26.49;101020.94;7400174;19;20018;-61
2023/04/19 09:52:54;;;;;;;6.13;2.50;;;;;;;33.93;26.27;101025.34;7397726;19;20033;-61
2023/04/19 09:55:22;;;;;;;5.25;1.70;;;;;;;33.61;26.55;101024.50;7399865;19;20345;-62
2023/04/19 09:57:49;;;;;;;5.55;2.65;;;;;;;34.31;26.33;101014.41;7397372;19;20011;-61
2023/04/19 10:00:15;;;;;;;4.97;2.10;;;;;;;34.54;25.96;101021.81;7400847;19;20011;-62
2023/04/19 10:02:43;;;;;;;4.00;2.50;;;;;;;34.57;26.08;101012.63;7396999;19;20011;-61
2023/04/19 10:05:10;;;;;;;6.22;2.80;;;;;;;34.74;25.87;101023.22;7397091;19;20010;-61
2023/04/19 10:07:37;;;;;;;4.32;2.15;;;;;;;34.65;25.94;101021.13;7396112;19;20340;-61
2023/04/19 10:10:05;;;;;;;2.42;1.85;;;;;;;34.32;25.78;101027.53;7397468;19;20036;-61
2023/04/19 10:12:31;;;;;;;5.32;1.92;;;;;;;34.12;26.30;101013.75;7396178;19;20359;-61
2023/04/19 10:14:57;;;;;;;4.70;2.53;;;;;;;34.26;26.23;101018.41;7396175;19;20007;-62
2023/04/19 10:17:24;;;;;;;4.57;2.13;;;;;;;34.43;26.23;101008.75;7396534;19;20032;-61
2023/04/19 10:20:07;;;;;;;5.47;2.75;;;;;;;34.52;26.16;101005.06;7397680;19;20014;-62
2023/04/19 10:22:37;;;;;;;7.65;2.72;;;;;;;34.68;26.21;101006.19;7395257;19;20385;-61
2023/04/19 10:25:27;;;;;;;4.78;1.65;;;;;;;34.55;25.75;101005.94;7395295;19;20011;-62
2023/04/19 10:27:53;;;;;;;9.68;2.13;;;;;;;34.58;26.02;100996.03;7395785;19;20078;-61
2023/04/19 10:30:21;;;;;;;2.67;1.77;;;;;;;34.90;26.24;100992.47;7398394;19;20021;-62
2023/04/19 10:32:58;;;;;;;7.97;3.38;;;;;;;35.12;25.68;100990.34;7395285;19;20027;-61
2023/04/19 10:35:30;;;;;;;13.05;2.85;;;;;;;35.25;25.87;100970.25;7395670;19;20011;-61
2023/04/19 10:38:03;;;;;;;2.58;1.38;;;;;;;35.16;25.35;100991.38;7394237;19;20019;-61
2023/04/19 10:40:59;;;;;;;3.47;1.98;;;;;;;35.11;25.87;100983.03;7400679;19;20492;-61
2023/04/19 10:43:27;;;;;;;8.38;2.33;;;;;;;35.27;25.53;100981.97;7393878;19;20014;-61
2023/04/19 10:45:58;;;;;;;2.22;1.40;;;;;;;35.20;25.62;100988.75;7395886;19;20468;-61
2023/04/19 10:48:31;;;;;;;1.75;1.50;;;;;;;34.91;25.76;100988.19;7396131;19;20003;-61
2023/04/19 10:51:09;;;;;;;14.98;3.35;;;;;;;33.94;26.81;100987.16;7394080;19;20036;-61
2023/04/19 10:53:47;;;;;;;7.32;1.88;;;;;;;33.80;26.73;100989.03;7393729;19;20359;-61
2023/04/19 10:56:16;;;;;;;2.92;2.03;;;;;;;33.81;26.94;100972.44;7394272;19;20516;-61
2023/04/19 10:59:00;;;;;;;4.82;2.78;;;;;;;33.74;26.92;100982.81;7395555;19;20018;-61
2023/04/19 11:01:43;;;;;;;2.90;1.38;;;;;;;33.58;27.10;100972.97;7392921;19;20010;-61
2023/04/19 11:04:48;;;;;;;5.25;1.85;;;;;;;31.79;28.90;100973.50;7394012;19;20041;-61
2023/04/19 11:07:17;;;;;;;9.35;2.78;;;;;;;31.65;29.08;100980.97;7393100;19;20014;-61
2023/04/19 11:09:47;;;;;;;3.65;1.85;;;;;;;31.53;28.73;100980.00;7397393;19;20015;-61
2023/04/19 11:12:15;;;;;;;7.78;2.15;;;;;;;31.71;28.92;100967.06;7391766;19;20379;-61
2023/04/19 11:14:46;;;;;;;3.50;1.73;;;;;;;31.79;29.07;100973.50;7393675;19;20318;-61
2023/04/19 11:17:15;;;;;;;4.03;1.52;;;;;;;32.43;28.65;100975.75;7395508;19;20010;-62
2023/04/19 11:19:51;;;;;;;3.58;2.50;;;;;;;33.24;27.58;100973.28;7396811;19;20082;-62
2023/04/19 11:22:23;;;;;;;6.90;2.83;;;;;;;33.19;27.72;100971.47;7393576;19;20014;-60
2023/04/19 11:24:49;;;;;;;7.97;2.38;;;;;;;33.35;27.48;100967.63;7392992;19;20011;-62
2023/04/19 11:27:15;;;;;;;6.50;1.80;;;;;;;33.51;27.70;100974.66;7392948;19;20006;-62
2023/04/19 11:29:41;;;;;;;11.38;2.53;;;;;;;33.60;27.36;100964.44;7396482;19;20086;-60